createdAt,value
2022-09-17T00:01:49.143Z,9.20
2022-09-17T00:04:18.499Z,9.32
2022-09-17T00:06:47.851Z,9.15
2022-09-17T00:09:17.957Z,8.68
2022-09-17T00:11:47.374Z,8.63
2022-09-17T00:14:19.909Z,9.10
2022-09-17T00:16:50.913Z,9.88
2022-09-17T00:19:24.629Z,9.77
2022-09-17T00:21:54.062Z,9.40
2022-09-17T00:24:23.943Z,9.88
2022-09-17T00:26:54.656Z,10.80
2022-09-17T00:29:23.871Z,13.63
2022-09-17T00:31:53.707Z,15.15
2022-09-17T00:34:22.917Z,13.35
2022-09-17T00:36:52.102Z,11.55
2022-09-17T00:39:21.213Z,11.35
2022-09-17T00:41:50.484Z,10.27
2022-09-17T00:44:52.380Z,17.33
2022-09-17T00:47:46.700Z,15.48
2022-09-17T00:50:47.797Z,12.32
2022-09-17T00:53:22.030Z,9.60
2022-09-17T00:56:04.730Z,9.15
2022-09-17T00:58:40.971Z,9.45
2022-09-17T01:01:10.881Z,9.20
2022-09-17T01:03:40.198Z,8.00
2022-09-17T01:06:42.609Z,7.97
2022-09-17T01:09:44.971Z,7.15
2022-09-17T01:13:01.052Z,7.13
2022-09-17T01:16:04.961Z,9.40
2022-09-17T01:19:26.175Z,6.53
2022-09-17T01:22:42.136Z,7.97
2022-09-17T01:25:53.799Z,7.35
2022-09-17T01:29:04.984Z,8.25
2022-09-17T01:32:08.298Z,7.95
2022-09-17T01:35:16.704Z,7.22
2022-09-17T01:38:31.334Z,5.88
2022-09-17T01:41:40.525Z,6.47
2022-09-17T01:44:44.387Z,5.68
2022-09-17T01:47:43.900Z,5.45
2022-09-17T01:50:27.850Z,7.28
2022-09-17T01:52:59.411Z,6.97
2022-09-17T01:55:37.198Z,4.65
2022-09-17T01:58:32.261Z,4.07
2022-09-17T02:01:08.196Z,7.70
2022-09-17T02:04:10.868Z,7.50
2022-09-17T02:06:44.326Z,3.35
2022-09-17T02:09:26.499Z,3.72
2022-09-17T02:12:02.230Z,4.68
2022-09-17T02:14:45.081Z,4.72
2022-09-17T02:17:26.601Z,4.80
2022-09-17T02:19:57.625Z,5.10
2022-09-17T02:22:46.441Z,7.03
2022-09-17T02:25:38.720Z,3.72
2022-09-17T02:28:39.506Z,3.70
2022-09-17T02:31:09.351Z,5.82
2022-09-17T02:33:42.818Z,3.50
2022-09-17T02:36:12.285Z,3.72
2022-09-17T02:38:46.831Z,3.83
2022-09-17T02:41:55.336Z,3.25
2022-09-17T02:45:00.379Z,2.28
2022-09-17T02:48:06.602Z,3.00
2022-09-17T02:51:19.880Z,2.10
2022-09-17T02:54:39.951Z,1.67
2022-09-17T02:57:49.268Z,2.25
2022-09-17T03:00:22.183Z,2.10
2022-09-17T03:03:15.718Z,1.58
2022-09-17T03:05:46.577Z,1.25
2022-09-17T03:08:19.870Z,1.90
2022-09-17T03:10:50.434Z,2.55
2022-09-17T03:13:20.288Z,3.38
2022-09-17T03:15:49.491Z,1.80
2022-09-17T03:18:18.948Z,1.98
2022-09-17T03:20:48.219Z,1.25
2022-09-17T03:23:17.786Z,1.52
2022-09-17T03:25:50.629Z,1.40
2022-09-17T03:28:19.953Z,1.65
2022-09-17T03:30:49.524Z,1.60
2022-09-17T03:33:18.807Z,1.42
2022-09-17T03:35:48.841Z,1.10
2022-09-17T03:38:18.898Z,1.85
2022-09-17T03:41:05.207Z,2.45
2022-09-17T03:43:35.011Z,1.65
2022-09-17T03:46:04.487Z,2.75
2022-09-17T03:48:38.021Z,2.47
2022-09-17T03:51:07.898Z,2.42
2022-09-17T03:53:37.272Z,2.25
2022-09-17T03:56:09.093Z,1.00
2022-09-17T03:58:39.860Z,1.88
2022-09-17T04:01:09.235Z,1.75
2022-09-17T04:03:38.540Z,2.55
2022-09-17T04:06:08.075Z,1.77
2022-09-17T04:08:38.107Z,1.70
2022-09-17T04:11:08.878Z,1.45
2022-09-17T04:13:38.237Z,1.70
2022-09-17T04:16:07.834Z,1.77
2022-09-17T04:18:37.298Z,0.90
2022-09-17T04:21:07.230Z,1.27
2022-09-17T04:23:36.509Z,1.30
2022-09-17T04:26:06.049Z,2.60
2022-09-17T04:28:35.457Z,1.80
2022-09-17T04:31:04.815Z,0.98
2022-09-17T04:33:34.144Z,0.93
2022-09-17T04:36:03.514Z,1.15
2022-09-17T04:38:34.500Z,2.00
2022-09-17T04:41:03.844Z,1.20
2022-09-17T04:43:33.020Z,1.40
2022-09-17T04:46:02.384Z,1.63
2022-09-17T04:48:31.604Z,1.42
2022-09-17T04:51:00.711Z,1.02
2022-09-17T04:53:29.964Z,1.92
2022-09-17T04:55:59.100Z,1.20
2022-09-17T04:58:28.487Z,1.13
2022-09-17T05:00:57.738Z,1.58
2022-09-17T05:03:27.321Z,1.08
2022-09-17T05:05:57.040Z,0.82
2022-09-17T05:08:26.610Z,1.60
2022-09-17T05:10:55.824Z,3.92
2022-09-17T05:13:25.078Z,2.78
2022-09-17T05:15:57.716Z,1.15
2022-09-17T05:18:27.462Z,1.08
2022-09-17T05:20:56.678Z,1.25
2022-09-17T05:23:25.982Z,1.88
2022-09-17T05:26:01.057Z,1.30
2022-09-17T05:28:31.400Z,1.83
2022-09-17T05:31:05.092Z,1.38
2022-09-17T05:33:34.404Z,1.38
2022-09-17T05:36:03.955Z,1.90
2022-09-17T05:38:33.168Z,1.75
2022-09-17T05:41:07.772Z,2.10
2022-09-17T05:43:37.200Z,2.65
2022-09-17T05:46:08.493Z,1.23
2022-09-17T05:48:37.763Z,1.25
2022-09-17T05:51:07.085Z,1.50
2022-09-17T05:53:36.709Z,1.08
2022-09-17T05:56:06.054Z,1.33
2022-09-17T05:58:35.515Z,1.48
2022-09-17T06:01:04.894Z,2.15
2022-09-17T06:03:34.431Z,1.85
2022-09-17T06:06:03.685Z,1.13
2022-09-17T06:08:33.035Z,2.10
2022-09-17T06:11:10.504Z,1.52
2022-09-17T06:13:39.731Z,1.33
2022-09-17T06:16:09.022Z,2.03
2022-09-17T06:18:38.265Z,1.30
2022-09-17T06:21:07.644Z,1.40
2022-09-17T06:23:37.359Z,1.45
2022-09-17T06:26:08.163Z,1.83
2022-09-17T06:28:50.868Z,1.33
2022-09-17T06:31:20.243Z,1.00
2022-09-17T06:33:49.488Z,1.20
2022-09-17T06:36:18.738Z,1.55
2022-09-17T06:38:48.009Z,1.23
2022-09-17T06:41:18.018Z,0.88
2022-09-17T06:43:47.226Z,1.00
2022-09-17T06:46:17.016Z,2.10
2022-09-17T06:48:46.206Z,1.88
2022-09-17T06:51:15.911Z,0.70
2022-09-17T06:53:45.202Z,1.30
2022-09-17T06:56:14.527Z,1.40
2022-09-17T06:58:44.840Z,3.25
2022-09-17T07:01:15.216Z,3.00
2022-09-17T07:03:45.262Z,1.05
2022-09-17T07:06:14.780Z,2.20
2022-09-17T07:08:44.181Z,1.20
2022-09-17T07:11:14.304Z,0.80
2022-09-17T07:13:43.617Z,2.97
2022-09-17T07:16:13.245Z,3.90
2022-09-17T07:18:42.474Z,0.90
2022-09-17T07:21:12.435Z,1.08
2022-09-17T07:23:41.842Z,1.05
2022-09-17T07:26:17.136Z,1.00
2022-09-17T07:28:46.858Z,1.45
2022-09-17T07:31:17.409Z,0.95
2022-09-17T07:33:47.509Z,1.75
2022-09-17T07:36:21.636Z,0.70
2022-09-17T07:38:50.768Z,2.00
2022-09-17T07:41:20.450Z,1.30
2022-09-17T07:43:50.115Z,1.70
2022-09-17T07:46:22.506Z,1.08
2022-09-17T07:48:52.870Z,0.70
2022-09-17T07:51:26.579Z,0.50
2022-09-17T07:54:00.077Z,12.52
2022-09-17T07:56:30.661Z,0.93
2022-09-17T07:59:00.066Z,1.80
2022-09-17T08:01:29.384Z,0.85
2022-09-17T08:03:58.595Z,1.65
2022-09-17T08:06:31.953Z,1.30
2022-09-17T08:09:02.306Z,1.85
2022-09-17T08:11:54.633Z,1.63
2022-09-17T08:14:26.985Z,1.67
2022-09-17T08:16:58.958Z,4.78
2022-09-17T08:19:32.225Z,1.60
2022-09-17T08:22:01.585Z,1.70
2022-09-17T08:24:30.786Z,1.50
2022-09-17T08:27:00.036Z,1.65
2022-09-17T08:29:32.080Z,2.55
2022-09-17T08:32:04.794Z,1.92
2022-09-17T08:34:34.026Z,3.28
2022-09-17T08:37:04.090Z,3.15
2022-09-17T08:39:33.199Z,1.80
2022-09-17T08:42:37.428Z,1.50
2022-09-17T08:45:15.268Z,1.35
2022-09-17T08:47:48.171Z,2.53
2022-09-17T08:50:33.724Z,1.88
2022-09-17T08:53:48.213Z,1.80
2022-09-17T08:56:22.802Z,2.88
2022-09-17T08:59:29.483Z,2.05
2022-09-17T09:02:24.893Z,2.88
2022-09-17T09:05:16.487Z,4.53
2022-09-17T09:07:53.699Z,2.40
2022-09-17T09:10:46.105Z,2.30
2022-09-17T09:13:22.461Z,4.57
2022-09-17T09:16:08.173Z,4.13
2022-09-17T09:18:43.433Z,2.28
2022-09-17T09:21:43.804Z,5.28
2022-09-17T09:24:27.367Z,2.60
2022-09-17T09:27:26.577Z,3.75
2022-09-17T09:30:12.588Z,10.93
2022-09-17T09:33:18.998Z,4.38
2022-09-17T09:35:48.377Z,3.95
2022-09-17T09:38:44.331Z,3.92
2022-09-17T09:41:24.923Z,7.20
2022-09-17T09:44:15.621Z,3.70
2022-09-17T09:47:20.311Z,4.55
2022-09-17T09:50:48.695Z,4.45
2022-09-17T09:54:06.261Z,3.53
2022-09-17T09:57:05.009Z,3.70
2022-09-17T09:59:35.157Z,5.90
2022-09-17T10:02:04.754Z,4.60
2022-09-17T10:04:34.286Z,4.75
2022-09-17T10:07:13.403Z,10.05
2022-09-17T10:09:48.282Z,8.32
2022-09-17T10:12:19.781Z,4.45
2022-09-17T10:14:49.614Z,5.30
2022-09-17T10:17:27.616Z,5.93
2022-09-17T10:20:23.149Z,6.63
2022-09-17T10:22:52.804Z,9.13
2022-09-17T10:25:36.158Z,5.45
2022-09-17T10:28:49.443Z,4.90
2022-09-17T10:31:19.066Z,5.05
2022-09-17T10:34:04.253Z,5.70
2022-09-17T10:36:47.473Z,7.88
2022-09-17T10:39:49.690Z,4.63
2022-09-17T10:42:22.101Z,5.50
2022-09-17T10:44:58.264Z,6.78
2022-09-17T10:47:39.446Z,9.98
2022-09-17T10:50:24.141Z,7.43
2022-09-17T10:53:09.853Z,7.40
2022-09-17T10:56:17.276Z,2.78
2022-09-17T10:59:24.942Z,3.38
2022-09-17T11:02:45.669Z,0.60
2022-09-17T11:05:59.553Z,1.25
2022-09-17T11:09:00.922Z,0.93
2022-09-17T11:12:28.898Z,1.15
2022-09-17T11:15:27.552Z,2.30
2022-09-17T11:18:39.379Z,1.35
2022-09-17T11:21:46.547Z,1.20
2022-09-17T11:25:06.279Z,0.45
2022-09-17T11:28:12.244Z,2.17
2022-09-17T11:31:20.442Z,1.00
2022-09-17T11:34:27.633Z,1.08
2022-09-17T11:37:32.029Z,1.27
2022-09-17T11:40:16.792Z,0.45
2022-09-17T11:43:29.966Z,0.80
2022-09-17T11:46:30.364Z,0.77
2022-09-17T11:49:52.140Z,1.27
2022-09-17T11:52:42.577Z,1.50
2022-09-17T11:55:44.304Z,1.00
2022-09-17T11:58:45.163Z,1.30
2022-09-17T12:02:03.716Z,0.95
2022-09-17T12:05:02.060Z,1.40
2022-09-17T12:11:09.219Z,0.80
2022-09-17T12:13:57.300Z,0.98
2022-09-17T12:16:44.666Z,0.38
2022-09-17T12:19:33.811Z,1.25
2022-09-17T12:22:26.429Z,1.23
2022-09-17T12:24:56.495Z,2.38
2022-09-17T12:28:01.187Z,2.67
2022-09-17T12:31:21.790Z,3.33
2022-09-17T12:34:21.919Z,3.35
2022-09-17T12:37:27.364Z,3.35
2022-09-17T12:40:49.509Z,3.30
2022-09-17T12:44:06.574Z,5.75
2022-09-17T12:47:27.206Z,3.33
2022-09-17T12:50:36.995Z,2.13
2022-09-17T12:53:30.641Z,1.52
2022-09-17T12:56:34.367Z,1.40
2022-09-17T12:59:20.400Z,1.05
2022-09-17T13:02:27.264Z,1.00
2022-09-17T13:05:50.039Z,0.90
2022-09-17T13:09:00.930Z,0.90
2022-09-17T13:12:10.389Z,0.90
2022-09-17T13:15:32.074Z,0.90
2022-09-17T13:19:15.445Z,1.30
2022-09-17T13:22:18.519Z,2.25
2022-09-17T13:25:02.482Z,2.65
2022-09-17T13:27:32.162Z,2.53
2022-09-17T13:30:03.022Z,2.97
2022-09-17T13:32:53.730Z,2.80
2022-09-17T13:35:54.379Z,3.33
2022-09-17T13:38:25.454Z,3.85
2022-09-17T13:41:24.944Z,3.65
2022-09-17T13:44:03.045Z,4.10
2022-09-17T13:46:35.377Z,2.78
2022-09-17T13:49:18.483Z,2.45
2022-09-17T13:51:56.123Z,2.67
2022-09-17T13:54:47.736Z,2.57
2022-09-17T13:57:19.056Z,1.73
2022-09-17T14:00:07.032Z,1.52
2022-09-17T14:02:44.329Z,1.75
2022-09-17T14:05:50.010Z,2.85
2022-09-17T14:08:50.931Z,2.20
2022-09-17T14:11:59.582Z,1.42
2022-09-17T14:14:55.796Z,1.30
2022-09-17T14:17:51.881Z,1.45
2022-09-17T14:20:30.631Z,1.00
2022-09-17T14:23:17.319Z,1.17
2022-09-17T14:25:58.116Z,1.23
2022-09-17T14:28:55.463Z,1.40
2022-09-17T14:31:35.336Z,2.37
2022-09-17T14:34:19.158Z,1.42
2022-09-17T14:36:53.367Z,1.30
2022-09-17T14:39:42.505Z,1.02
2022-09-17T14:42:29.125Z,0.90
2022-09-17T14:45:18.053Z,1.30
2022-09-17T14:47:52.586Z,1.10
2022-09-17T14:50:28.148Z,0.60
2022-09-17T14:52:57.441Z,1.85
2022-09-17T14:55:33.246Z,1.70
2022-09-17T14:58:08.665Z,1.10
2022-09-17T15:00:40.236Z,1.35
2022-09-17T15:03:24.731Z,0.98
2022-09-17T15:05:57.278Z,0.98
2022-09-17T15:08:31.933Z,1.38
2022-09-17T15:11:05.338Z,1.35
2022-09-17T15:13:44.193Z,1.67
2022-09-17T15:16:28.867Z,1.30
2022-09-17T15:19:05.827Z,1.60
2022-09-17T15:21:50.457Z,1.80
2022-09-17T15:25:05.918Z,1.63
2022-09-17T15:27:45.151Z,1.40
2022-09-17T15:30:25.064Z,1.85
2022-09-17T15:32:59.909Z,1.52
2022-09-17T15:35:39.647Z,2.03
2022-09-17T15:38:24.219Z,1.10
2022-09-17T15:40:54.648Z,1.15
2022-09-17T15:43:35.376Z,1.20
2022-09-17T15:46:33.233Z,1.27
2022-09-17T15:49:36.509Z,1.10
2022-09-17T15:52:39.996Z,1.30
2022-09-17T15:55:36.124Z,1.60
2022-09-17T15:58:30.930Z,0.75
2022-09-17T16:01:51.808Z,1.10
2022-09-17T16:04:34.715Z,1.42
2022-09-17T16:07:31.537Z,0.93
2022-09-17T16:10:05.240Z,1.27
2022-09-17T16:12:37.400Z,1.70
2022-09-17T16:15:10.401Z,2.00
2022-09-17T16:17:48.583Z,1.17
2022-09-17T16:20:38.872Z,1.20
2022-09-17T16:23:08.201Z,1.13
2022-09-17T16:25:40.928Z,1.15
2022-09-17T16:28:22.432Z,0.93
2022-09-17T16:30:54.695Z,1.10
2022-09-17T16:33:29.338Z,0.80
2022-09-17T16:36:01.604Z,0.90
2022-09-17T16:38:40.016Z,0.93
2022-09-17T16:43:41.828Z,1.00
2022-09-17T16:46:15.822Z,0.73
2022-09-17T16:48:47.481Z,0.50
2022-09-17T16:51:18.870Z,0.40
2022-09-17T16:53:50.993Z,0.40
2022-09-17T16:56:26.292Z,1.00
2022-09-17T16:59:01.213Z,0.30
2022-09-17T17:01:30.476Z,0.40
2022-09-17T17:04:04.500Z,0.30
2022-09-17T17:06:33.767Z,0.40
2022-09-17T17:09:05.858Z,0.40
2022-09-17T17:11:40.807Z,0.52
2022-09-17T17:14:15.625Z,0.30
2022-09-17T17:16:45.902Z,0.35
2022-09-17T17:19:18.814Z,0.22
2022-09-17T17:21:51.525Z,0.30
2022-09-17T17:24:24.242Z,0.30
2022-09-17T17:26:55.273Z,0.40
2022-09-17T17:29:24.646Z,0.30
2022-09-17T17:31:55.942Z,0.32
2022-09-17T17:34:25.164Z,0.38
2022-09-17T17:36:56.136Z,0.30
2022-09-17T17:39:28.121Z,0.35
2022-09-17T17:41:57.492Z,0.50
2022-09-17T17:44:31.651Z,0.30
2022-09-17T17:47:07.384Z,0.40
2022-09-17T17:49:37.105Z,0.30
2022-09-17T17:52:06.844Z,0.38
2022-09-17T17:54:36.025Z,0.40
2022-09-17T17:57:08.282Z,0.30
2022-09-17T17:59:42.167Z,0.40
2022-09-17T18:02:16.013Z,0.43
2022-09-17T18:04:45.487Z,0.40
2022-09-17T18:07:14.853Z,0.30
2022-09-17T18:09:48.786Z,0.50
2022-09-17T18:12:23.792Z,0.30
2022-09-17T18:14:58.590Z,0.50
2022-09-17T18:17:29.560Z,0.50
2022-09-17T18:20:04.632Z,0.65
2022-09-17T18:22:33.785Z,0.30
2022-09-17T18:25:05.813Z,0.40
2022-09-17T18:27:38.170Z,0.63
2022-09-17T18:30:08.374Z,0.50
2022-09-17T18:32:40.545Z,0.52
2022-09-17T18:35:15.524Z,0.50
2022-09-17T18:37:47.834Z,0.38
2022-09-17T18:40:19.514Z,0.43
2022-09-17T18:42:53.955Z,0.65
2022-09-17T18:45:25.273Z,0.47
2022-09-17T18:47:55.755Z,0.30
2022-09-17T18:50:35.028Z,0.47
2022-09-17T18:53:07.431Z,0.20
2022-09-17T18:55:39.384Z,0.50
2022-09-17T18:58:10.734Z,0.50
2022-09-17T19:00:42.808Z,0.35
2022-09-17T19:03:12.204Z,0.50
2022-09-17T19:05:44.712Z,0.50
2022-09-17T19:08:16.688Z,0.40
2022-09-17T19:10:53.046Z,0.50
2022-09-17T19:13:25.189Z,0.50
2022-09-17T19:16:00.526Z,0.57
2022-09-17T19:18:30.439Z,1.05
2022-09-17T19:21:16.388Z,0.77
2022-09-17T19:23:49.031Z,0.60
2022-09-17T19:26:28.084Z,0.75
2022-09-17T19:29:04.179Z,0.57
2022-09-17T19:31:36.480Z,0.38
2022-09-17T19:34:08.553Z,0.50
2022-09-17T19:36:42.679Z,0.40
2022-09-17T19:39:12.854Z,0.38
2022-09-17T19:41:42.130Z,0.50
2022-09-17T19:44:14.124Z,0.63
2022-09-17T19:46:47.478Z,0.80
2022-09-17T19:49:20.665Z,0.57
2022-09-17T19:51:52.688Z,0.88
2022-09-17T19:54:24.657Z,1.00
2022-09-17T19:56:59.745Z,0.90
2022-09-17T19:59:33.604Z,1.08
2022-09-17T20:02:02.941Z,0.73
2022-09-17T20:04:34.276Z,0.73
2022-09-17T20:07:05.485Z,0.70
2022-09-17T20:09:40.376Z,0.65
2022-09-17T20:12:12.040Z,0.50
2022-09-17T20:14:47.138Z,0.70
2022-09-17T20:17:19.104Z,0.73
2022-09-17T20:19:51.183Z,0.70
2022-09-17T20:22:25.464Z,0.70
2022-09-17T20:24:55.899Z,0.50
2022-09-17T20:27:27.901Z,0.43
2022-09-17T20:29:57.778Z,0.73
2022-09-17T20:32:33.417Z,1.08
2022-09-17T20:35:10.972Z,0.75
2022-09-17T20:40:36.392Z,0.80
2022-09-17T20:43:08.429Z,1.17
2022-09-17T20:45:37.578Z,2.88
2022-09-17T20:48:10.378Z,3.90
2022-09-17T20:50:40.260Z,4.22
2022-09-17T20:53:11.606Z,5.13
2022-09-17T20:55:40.786Z,4.97
2022-09-17T20:58:12.167Z,5.65
2022-09-17T21:00:43.491Z,4.18
2022-09-17T21:03:15.465Z,3.67
2022-09-17T21:05:46.465Z,3.75
2022-09-17T21:08:18.499Z,3.03
2022-09-17T21:10:53.424Z,2.53
2022-09-17T21:13:25.589Z,2.60
2022-09-17T21:16:01.452Z,1.95
2022-09-17T21:18:32.682Z,1.20
2022-09-17T21:21:09.403Z,1.55
2022-09-17T21:23:40.843Z,1.30
2022-09-17T21:26:29.666Z,1.20
2022-09-17T21:29:04.448Z,1.00
2022-09-17T21:31:37.968Z,0.80
2022-09-17T21:34:14.085Z,1.15
2022-09-17T21:36:49.195Z,0.98
2022-09-17T21:39:25.298Z,1.50
2022-09-17T21:42:00.032Z,1.20
2022-09-17T21:44:34.417Z,1.75
2022-09-17T21:47:12.414Z,1.55
2022-09-17T21:49:41.897Z,1.38
2022-09-17T21:52:11.294Z,1.17
2022-09-17T21:54:46.195Z,1.17
2022-09-17T21:57:20.131Z,1.20
2022-09-17T21:59:49.229Z,1.70
2022-09-17T22:02:21.224Z,1.75
2022-09-17T22:04:55.755Z,1.92
2022-09-17T22:07:25.027Z,2.22
2022-09-17T22:09:57.329Z,2.20
2022-09-17T22:12:31.874Z,2.08
2022-09-17T22:15:01.150Z,2.25
2022-09-17T22:17:30.472Z,2.50
2022-09-17T22:20:01.750Z,1.92
2022-09-17T22:22:35.397Z,2.22
2022-09-17T22:25:07.539Z,2.42
2022-09-17T22:27:41.389Z,2.35
2022-09-17T22:30:15.797Z,2.20
2022-09-17T22:32:45.023Z,2.63
2022-09-17T22:35:14.298Z,2.42
2022-09-17T22:37:48.245Z,2.40
2022-09-17T22:40:22.302Z,3.20
2022-09-17T22:42:54.372Z,2.22
2022-09-17T22:45:23.752Z,2.35
2022-09-17T22:47:56.423Z,2.20
2022-09-17T22:50:27.781Z,2.00
2022-09-17T22:52:59.979Z,3.05
2022-09-17T22:55:34.640Z,2.95
2022-09-17T22:58:06.907Z,3.50
2022-09-17T23:00:38.934Z,3.05
2022-09-17T23:03:13.170Z,3.15
2022-09-17T23:05:45.260Z,3.03
2022-09-17T23:08:20.762Z,3.50
2022-09-17T23:10:57.938Z,3.38
2022-09-17T23:13:28.971Z,3.00
2022-09-17T23:16:10.006Z,5.38
2022-09-17T23:18:39.576Z,3.20
2022-09-17T23:21:20.998Z,2.00
2022-09-17T23:23:53.947Z,2.15
2022-09-17T23:26:29.289Z,2.13
2022-09-17T23:29:03.854Z,1.92
2022-09-17T23:31:35.989Z,2.13
2022-09-17T23:34:09.714Z,2.25
2022-09-17T23:36:46.095Z,2.42
2022-09-17T23:39:20.335Z,2.60
2022-09-17T23:41:53.764Z,2.67
2022-09-17T23:44:25.159Z,2.47
2022-09-17T23:46:54.499Z,2.35
2022-09-17T23:49:26.303Z,2.40
2022-09-17T23:51:56.097Z,2.22
2022-09-17T23:54:29.449Z,2.40
2022-09-17T23:57:02.495Z,2.58
2022-09-17T23:59:37.338Z,3.15
